Time;durP1;ratioP1;P1;durP2;ratioP2;P2;SDS_P1;SDS_P2;PMS_P1;PMS_P2;Temp;Humidity;BMP_temperature;BMP_pressure;BME280_temperature;BME280_humidity;BME280_pressure;Samples;Min_cycle;Max_cycle;Signal;HPM_P1;HPM_P2
2023/01/05 00:00:10;;;;;;;;;0.00;0.00;;;;;13.81;89.57;102150.75;4997387;28;45361;-87
2023/01/05 00:02:36;;;;;;;;;0.00;0.00;;;;;13.81;89.41;102149.91;4997330;28;45378;-87
2023/01/05 00:05:01;;;;;;;;;0.75;0.00;;;;;13.78;89.47;102145.59;4995742;28;49201;-87
2023/01/05 00:07:26;;;;;;;;;0.00;0.00;;;;;13.78;89.53;102156.06;4996604;28;59731;-87
2023/01/05 00:09:52;;;;;;;;;0.00;0.00;;;;;13.75;89.32;102156.13;4996379;28;58286;-87
2023/01/05 00:23:12;;;;;;;;;3.75;3.00;;;;;13.68;88.98;102144.88;4997138;28;45371;-86
2023/01/05 00:25:39;;;;;;;;;4.75;1.50;;;;;13.67;88.75;102151.03;4995906;28;64007;-87
2023/01/05 00:28:04;;;;;;;;;2.00;1.00;;;;;13.63;88.60;102141.53;4995585;28;45378;-87
2023/01/05 00:30:32;;;;;;;;;0.00;0.00;;;;;13.63;88.70;102143.25;4995324;28;49085;-86
2023/01/05 00:32:58;;;;;;;;;0.00;0.00;;;;;13.64;88.47;102152.84;4996104;28;45370;-87
2023/01/05 00:35:23;;;;;;;;;0.00;0.00;;;;;13.58;88.27;102156.44;4996993;28;47096;-87
2023/01/05 00:37:50;;;;;;;;;3.00;0.00;;;;;13.58;88.26;102151.22;4996845;28;45787;-87
2023/01/05 00:40:18;;;;;;;;;0.00;0.00;;;;;13.58;87.95;102168.63;4996641;28;45357;-87
2023/01/05 00:42:44;;;;;;;;;1.00;0.00;;;;;13.57;87.90;102157.31;4995649;28;45493;-87
2023/01/05 00:45:12;;;;;;;;;0.00;0.00;;;;;13.55;87.07;102151.25;4995512;28;46113;-87
2023/01/05 00:47:38;;;;;;;;;1.00;0.00;;;;;13.52;86.17;102151.31;4996678;28;45757;-87
2023/01/05 00:50:04;;;;;;;;;0.00;0.00;;;;;13.50;85.95;102153.09;4995567;28;45521;-87
2023/01/05 00:52:29;;;;;;;;;1.00;0.00;;;;;13.51;85.90;102160.91;4996827;28;45426;-87
2023/01/05 00:54:54;;;;;;;;;0.00;0.00;;;;;13.52;86.20;102172.22;4995299;28;68781;-87
2023/01/05 00:57:20;;;;;;;;;0.00;0.00;;;;;13.50;85.38;102176.63;4996420;28;47477;-87
2023/01/05 00:59:45;;;;;;;;;0.00;0.00;;;;;13.50;85.72;102174.00;4996551;28;46332;-87
2023/01/05 01:02:10;;;;;;;;;0.00;0.00;;;;;13.50;85.59;102179.25;4994800;28;54664;-87
2023/01/05 01:04:36;;;;;;;;;1.00;0.00;;;;;13.49;85.44;102170.53;4995911;28;65350;-87
2023/01/05 01:07:02;;;;;;;;;0.50;0.00;;;;;13.52;85.37;102180.06;4994320;28;64488;-87
2023/01/05 01:09:27;;;;;;;;;0.00;0.00;;;;;13.51;85.24;102174.00;4995081;28;45473;-87
2023/01/05 01:11:53;;;;;;;;;0.00;0.00;;;;;13.49;85.44;102170.53;4995748;28;59906;-87
2023/01/05 01:14:18;;;;;;;;;0.00;0.00;;;;;13.48;85.29;102165.34;4994009;28;53685;-87
2023/01/05 01:16:44;;;;;;;;;0.00;0.00;;;;;13.47;85.16;102159.25;4994116;28;68530;-87
2023/01/05 01:19:21;;;;;;;;;0.00;0.00;;;;;13.45;84.68;102158.41;4994341;28;61550;-87
2023/01/05 01:21:46;;;;;;;;;0.00;0.00;;;;;13.42;84.38;102161.06;4994901;28;45377;-87
2023/01/05 01:24:16;;;;;;;;;0.00;0.00;;;;;13.39;84.13;102152.41;4978556;28;48103;-87
2023/01/05 01:26:42;;;;;;;;;0.25;0.00;;;;;13.39;84.33;102170.72;4996375;28;45302;-87
2023/01/05 01:29:08;;;;;;;;;1.00;0.00;;;;;13.36;83.71;102148.97;4996263;28;45282;-87
2023/01/05 01:31:34;;;;;;;;;0.00;0.00;;;;;13.38;84.00;102156.81;4995904;28;51728;-87
2023/01/05 01:34:00;;;;;;;;;0.00;0.00;;;;;13.39;84.12;102157.66;4996092;28;47206;-87
2023/01/05 01:36:25;;;;;;;;;0.00;0.00;;;;;13.36;83.89;102153.34;4994397;28;45412;-87
2023/01/05 01:38:51;;;;;;;;;0.00;0.00;;;;;13.37;83.99;102157.69;4996028;28;45386;-87
2023/01/05 01:41:16;;;;;;;;;0.00;0.00;;;;;13.39;83.96;102161.16;4994937;28;45349;-87
2023/01/05 01:43:48;;;;;;;;;0.25;0.00;;;;;13.40;84.08;102162.00;4993980;28;66900;-87
2023/01/05 01:46:15;;;;;;;;;1.00;0.00;;;;;13.39;83.95;102162.88;4995913;28;45403;-87
2023/01/05 01:48:44;;;;;;;;;0.00;0.00;;;;;13.38;83.77;102172.50;4994667;28;45418;-87
2023/01/05 01:51:14;;;;;;;;;0.75;0.00;;;;;13.36;83.88;102167.28;4994394;28;45385;-87
2023/01/05 01:53:43;;;;;;;;;0.75;0.00;;;;;13.39;83.84;102170.72;4994432;28;46356;-87
2023/01/05 01:56:11;;;;;;;;;0.00;0.00;;;;;13.39;83.89;102168.13;4994742;28;45411;-87
2023/01/05 01:58:37;;;;;;;;;0.00;0.00;;;;;13.39;83.98;102173.34;4994660;28;45469;-87
2023/01/05 02:01:03;;;;;;;;;1.75;0.00;;;;;13.38;83.67;102175.09;4995823;28;45446;-87
2023/01/05 02:03:30;;;;;;;;;1.00;0.00;;;;;13.36;84.18;102175.13;4995560;28;45590;-87
2023/01/05 02:05:55;;;;;;;;;0.75;0.00;;;;;13.36;84.01;102172.50;4993962;28;45409;-87
2023/01/05 02:08:30;;;;;;;;;1.50;0.00;;;;;13.33;84.39;102177.81;4995707;28;45502;-87
2023/01/05 02:11:14;;;;;;;;;0.00;0.00;;;;;13.34;84.07;102176.91;4995604;28;45460;-87
2023/01/05 02:13:42;;;;;;;;;1.00;0.25;;;;;13.32;83.83;102178.69;4994458;28;47108;-87
2023/01/05 02:16:45;;;;;;;;;0.00;0.00;;;;;13.29;83.73;102173.47;4995453;28;45791;-87
2023/01/05 02:19:20;;;;;;;;;0.00;0.00;;;;;13.27;83.33;102180.50;4995914;28;45340;-87
2023/01/05 02:22:00;;;;;;;;;0.50;0.00;;;;;13.24;82.55;102185.78;4995576;28;45861;-88
2023/01/05 02:24:36;;;;;;;;;0.25;0.00;;;;;13.20;81.81;102180.63;4994185;28;47329;-87
2023/01/05 02:27:10;;;;;;;;;2.25;0.00;;;;;13.18;81.55;102186.72;4997596;28;45458;-86
2023/01/05 02:30:13;;;;;;;;;2.00;0.00;;;;;13.17;81.53;102184.16;4997543;28;45413;-86
2023/01/05 02:33:23;;;;;;;;;1.00;0.00;;;;;13.17;82.12;102192.00;4997821;28;45495;-87
2023/01/05 02:36:03;;;;;;;;;0.00;0.00;;;;;13.15;81.54;102192.03;4996002;28;45527;-87
2023/01/05 02:38:37;;;;;;;;;0.75;0.00;;;;;13.17;81.56;102195.47;4980024;28;45415;-87
2023/01/05 02:41:10;;;;;;;;;0.25;0.00;;;;;13.13;80.89;102195.53;4996744;28;45482;-87
2023/01/05 02:43:35;;;;;;;;;0.00;0.00;;;;;13.14;80.77;102189.44;4980022;28;45516;-87
2023/01/05 02:46:00;;;;;;;;;1.50;0.00;;;;;13.11;80.76;102190.34;4996273;28;47044;-87
2023/01/05 02:48:26;;;;;;;;;0.00;0.00;;;;;13.09;80.76;102179.06;4979126;28;65979;-87
2023/01/05 02:51:00;;;;;;;;;2.25;0.00;;;;;13.09;81.13;102180.78;4995321;28;66998;-88
2023/01/05 02:53:47;;;;;;;;;2.00;0.00;;;;;13.11;80.88;102187.75;4996175;28;45611;-87
2023/01/05 02:56:16;;;;;;;;;1.50;0.00;;;;;13.09;80.56;102184.28;4996120;28;46214;-87
2023/01/05 02:59:05;;;;;;;;;1.00;0.00;;;;;13.07;80.78;102183.44;4996059;28;45721;-87
2023/01/05 03:01:37;;;;;;;;;0.00;0.00;;;;;13.05;80.74;102182.59;4995980;28;45417;-87
2023/01/05 03:04:12;;;;;;;;;1.00;1.00;;;;;13.05;80.88;102182.59;4995914;28;45444;-87
2023/01/05 03:06:48;;;;;;;;;0.00;0.00;;;;;13.06;80.73;102188.72;4995706;28;47073;-88
2023/01/05 03:09:18;;;;;;;;;1.00;0.00;;;;;13.05;80.93;102181.75;4996392;28;45602;-84
2023/01/05 03:14:37;;;;;;;;;1.50;1.00;;;;;13.08;81.05;102186.94;4998111;28;45347;-87
2023/01/05 03:17:05;;;;;;;;;0.00;0.00;;;;;13.13;81.01;102185.06;4996817;28;47386;-88
2023/01/05 03:19:38;;;;;;;;;0.00;0.00;;;;;13.16;80.86;102185.91;4996811;28;45459;-87
2023/01/05 03:36:05;;;;;;;;;1.50;0.00;;;;;13.25;80.97;102184.03;4997026;28;45306;-86
2023/01/05 03:38:51;;;;;;;;;1.00;0.50;;;;;13.25;80.83;102194.50;4995182;28;72051;-87
2023/01/05 03:41:18;;;;;;;;;2.00;0.00;;;;;13.24;80.71;102187.53;4980025;28;46138;-87
2023/01/05 03:43:45;;;;;;;;;2.00;0.00;;;;;13.25;81.27;102190.13;4996018;28;66759;-87
2023/01/05 03:46:15;;;;;;;;;0.00;0.00;;;;;13.25;81.13;102197.97;4997707;28;45464;-87
2023/01/05 03:48:40;;;;;;;;;0.00;0.00;;;;;13.27;80.70;102190.09;5012252;28;46310;-87
2023/01/05 03:51:06;;;;;;;;;2.00;0.00;;;;;13.28;81.22;102191.81;4996316;28;45476;-87
2023/01/05 03:53:31;;;;;;;;;0.00;0.00;;;;;13.32;80.91;102188.31;4997652;28;45477;-87
2023/01/05 03:55:56;;;;;;;;;0.00;0.00;;;;;13.33;81.32;102206.59;4996031;28;56264;-87
2023/01/05 03:58:22;;;;;;;;;0.00;0.00;;;;;13.36;81.31;102203.03;4996223;28;45410;-87
2023/01/05 04:00:47;;;;;;;;;0.00;0.00;;;;;13.40;81.34;102206.47;4995827;28;64490;-87
2023/01/05 04:03:12;;;;;;;;;0.75;0.00;;;;;13.42;81.26;102212.53;4996424;28;63356;-87
2023/01/05 04:05:37;;;;;;;;;0.00;0.00;;;;;13.42;81.24;102204.69;4996063;28;45422;-87
2023/01/05 04:08:03;;;;;;;;;0.00;0.00;;;;;13.42;80.96;102202.06;4996614;28;67102;-88
2023/01/05 04:10:28;;;;;;;;;1.25;0.00;;;;;13.42;81.10;102208.16;4997243;28;45401;-87
2023/01/05 04:12:54;;;;;;;;;0.00;0.00;;;;;13.43;81.08;102198.56;4995458;28;58647;-87
2023/01/05 04:15:19;;;;;;;;;3.00;0.00;;;;;13.43;81.28;102195.94;4997212;28;45314;-87
2023/01/05 04:17:45;;;;;;;;;0.00;0.00;;;;;13.43;81.04;102193.31;4996930;28;45778;-87
2023/01/05 04:20:10;;;;;;;;;1.25;0.00;;;;;13.43;81.35;102193.31;4997110;28;45382;-88
2023/01/05 04:22:36;;;;;;;;;2.75;0.75;;;;;13.44;81.38;102192.44;4997334;28;45420;-87
2023/01/05 04:25:01;;;;;;;;;1.00;0.25;;;;;13.43;81.25;102201.16;4995280;28;62121;-87
2023/01/05 04:27:26;;;;;;;;;2.00;0.00;;;;;13.41;81.19;102200.34;4995863;28;46099;-87
2023/01/05 04:29:52;;;;;;;;;1.00;0.00;;;;;13.40;81.29;102196.00;4996681;28;53652;-87
2023/01/05 04:32:17;;;;;;;;;0.00;0.00;;;;;13.36;81.66;102197.81;4996808;28;45402;-87
2023/01/05 04:34:42;;;;;;;;;2.50;0.00;;;;;13.35;81.85;102204.81;4995376;28;55530;-86
2023/01/05 04:37:08;;;;;;;;;0.00;0.00;;;;;13.33;81.96;102203.97;4996799;28;46933;-87
2023/01/05 04:39:33;;;;;;;;;1.00;0.00;;;;;13.33;82.17;102203.97;4995073;28;57459;-87
2023/01/05 04:41:58;;;;;;;;;1.00;0.00;;;;;13.34;82.10;102204.81;5011813;28;49202;-87
2023/01/05 04:44:23;;;;;;;;;1.00;0.00;;;;;13.31;82.13;102197.03;4996364;28;50336;-87
2023/01/05 04:46:49;;;;;;;;;2.50;0.75;;;;;13.35;82.10;102203.91;4995552;28;67885;-88
2023/01/05 04:49:14;;;;;;;;;2.00;0.00;;;;;13.35;82.34;102196.06;4994153;28;63156;-88
2023/01/05 04:51:39;;;;;;;;;1.00;0.00;;;;;13.34;82.41;102197.84;4995190;28;45349;-87
2023/01/05 04:54:05;;;;;;;;;0.00;0.00;;;;;13.33;82.62;102188.28;4995843;28;65955;-87
2023/01/05 04:56:30;;;;;;;;;0.00;0.00;;;;;13.35;82.58;102193.47;4995874;28;70976;-88
2023/01/05 04:58:55;;;;;;;;;0.25;0.25;;;;;13.35;82.44;102189.13;4996433;28;45548;-87
2023/01/05 05:01:21;;;;;;;;;0.00;0.00;;;;;13.36;82.55;102190.81;4994672;28;53136;-87
2023/01/05 05:03:46;;;;;;;;;1.00;0.00;;;;;13.36;83.05;102190.81;4995269;28;45513;-87
2023/01/05 05:06:11;;;;;;;;;0.00;0.00;;;;;13.36;82.89;102189.97;4978097;28;61724;-87
2023/01/05 05:08:37;;;;;;;;;0.00;0.00;;;;;13.36;82.49;102190.81;4995293;28;45613;-87
2023/01/05 05:11:03;;;;;;;;;1.25;0.00;;;;;13.38;82.76;102189.94;4978958;28;45609;-87
2023/01/05 05:13:28;;;;;;;;;1.00;0.00;;;;;13.39;82.70;102189.03;4996221;28;45482;-87
2023/01/05 05:15:53;;;;;;;;;2.00;0.00;;;;;13.38;82.80;102182.94;4995918;28;48756;-87
2023/01/05 05:18:20;;;;;;;;;0.00;0.00;;;;;13.39;82.98;102183.81;4995460;28;65377;-87
2023/01/05 05:20:47;;;;;;;;;2.00;0.00;;;;;13.36;83.25;102182.97;4995259;28;45323;-87
2023/01/05 05:23:13;;;;;;;;;0.00;0.00;;;;;13.33;83.05;102185.66;4995154;28;45420;-87
2023/01/05 05:25:38;;;;;;;;;1.00;0.00;;;;;13.33;83.42;102182.16;4996257;28;45499;-87
2023/01/05 05:28:04;;;;;;;;;0.00;0.00;;;;;13.34;83.45;102186.53;4995617;28;55300;-87
2023/01/05 05:30:29;;;;;;;;;2.00;0.00;;;;;13.35;83.43;102188.22;5011095;28;45381;-87
2023/01/05 05:32:54;;;;;;;;;1.00;0.00;;;;;13.34;83.29;102187.38;4977878;28;61812;-87
2023/01/05 05:35:20;;;;;;;;;0.00;0.00;;;;;13.34;83.19;102182.16;4994740;28;46959;-87
2023/01/05 05:37:45;;;;;;;;;0.00;0.00;;;;;13.35;83.36;102186.50;4994465;28;54927;-88
2023/01/05 05:40:11;;;;;;;;;1.00;0.00;;;;;13.36;83.79;102195.19;4996342;28;45377;-87
2023/01/05 05:42:36;;;;;;;;;0.00;0.00;;;;;13.34;83.65;102196.97;4995961;28;45497;-87
2023/01/05 05:45:02;;;;;;;;;0.00;0.00;;;;;13.32;83.86;102194.38;4995273;28;57363;-87
2023/01/05 05:47:27;;;;;;;;;0.75;0.00;;;;;13.31;84.18;102199.63;4994754;28;45428;-87
2023/01/05 05:49:53;;;;;;;;;0.00;0.00;;;;;13.29;83.90;102186.56;4996200;28;45338;-87
2023/01/05 05:52:18;;;;;;;;;0.00;0.00;;;;;13.29;84.15;102204.00;4993950;28;64359;-86
2023/01/05 05:54:44;;;;;;;;;0.00;0.00;;;;;13.28;84.11;102203.16;4995235;28;56649;-87
2023/01/05 05:57:09;;;;;;;;;0.00;0.00;;;;;13.28;84.02;102208.38;4995269;28;45349;-85
2023/01/05 05:59:34;;;;;;;;;0.00;0.00;;;;;13.25;83.98;102204.94;4995887;28;45369;-87
2023/01/05 06:02:00;;;;;;;;;0.00;0.00;;;;;13.27;84.36;102211.00;4997611;28;55622;-87
2023/01/05 06:04:25;;;;;;;;;0.00;0.00;;;;;13.26;84.51;102211.88;4998914;28;54450;-87
2023/01/05 06:06:50;;;;;;;;;0.00;0.00;;;;;13.24;84.58;102213.66;4998024;28;71459;-88
2023/01/05 06:09:16;;;;;;;;;0.00;0.00;;;;;13.22;84.46;102218.91;4999369;28;45397;-88
2023/01/05 06:11:41;;;;;;;;;1.00;0.00;;;;;13.23;84.54;102220.66;4999091;28;45328;-89
2023/01/05 06:14:07;;;;;;;;;0.00;0.00;;;;;13.23;84.35;102218.03;4997297;28;70806;-88
2023/01/05 06:16:32;;;;;;;;;0.00;0.00;;;;;13.23;84.82;102223.28;4999353;28;45396;-88
2023/01/05 06:18:57;;;;;;;;;0.00;0.00;;;;;13.20;84.56;102223.31;4997921;28;45479;-87
2023/01/05 06:21:23;;;;;;;;;0.00;0.00;;;;;13.22;84.95;102228.53;4999619;28;45194;-91
2023/01/05 06:23:48;;;;;;;;;0.00;0.00;;;;;13.21;84.76;102232.91;4999048;28;58631;-90
2023/01/05 06:26:14;;;;;;;;;0.00;0.00;;;;;13.21;84.59;102230.28;4998713;28;45384;-87
2023/01/05 06:28:39;;;;;;;;;0.00;0.00;;;;;13.19;84.93;102234.69;4997673;28;49473;-89
2023/01/05 06:31:05;;;;;;;;;2.50;0.00;;;;;13.20;84.98;102230.31;4981763;28;45239;-90
2023/01/05 06:33:30;;;;;;;;;0.00;0.00;;;;;13.20;84.84;102230.31;4980822;28;62192;-87
2023/01/05 06:35:57;;;;;;;;;0.00;0.00;;;;;13.18;84.95;102233.78;4997609;28;45696;-89
2023/01/05 06:38:23;;;;;;;;;0.00;0.00;;;;;13.18;85.00;102233.78;4997927;28;45377;-88
2023/01/05 06:40:49;;;;;;;;;0.00;0.00;;;;;13.19;85.12;102229.44;4998745;28;45315;-90
2023/01/05 06:43:14;;;;;;;;;0.00;0.00;;;;;13.19;85.04;102229.44;4980776;28;62016;-90
2023/01/05 06:45:39;;;;;;;;;0.00;0.00;;;;;13.20;85.20;102231.16;4997961;28;45361;-91
2023/01/05 06:48:05;;;;;;;;;0.00;0.00;;;;;13.19;85.29;102239.91;5004834;28;45267;-89
2023/01/05 06:50:31;;;;;;;;;0.00;0.00;;;;;13.20;84.85;102241.63;4999507;28;45512;-89
2023/01/05 06:52:56;;;;;;;;;1.00;0.00;;;;;13.20;85.11;102253.84;4997848;28;46322;-90
2023/01/05 06:55:22;;;;;;;;;0.00;0.00;;;;;13.18;85.38;102251.25;4980913;28;45557;-89
2023/01/05 06:57:47;;;;;;;;;0.00;0.00;;;;;13.17;85.38;102253.00;4998044;28;45487;-88
2023/01/05 07:00:13;;;;;;;;;0.75;0.00;;;;;13.18;85.42;102249.47;4997141;28;54798;-88
2023/01/05 07:02:38;;;;;;;;;0.00;0.00;;;;;13.18;85.61;102254.72;4997960;28;45981;-88
2023/01/05 07:05:04;;;;;;;;;2.00;0.00;;;;;13.20;85.25;102254.69;4997442;28;45416;-91
2023/01/05 07:07:30;;;;;;;;;1.00;0.00;;;;;13.20;85.48;102249.47;4998960;28;45443;-89
2023/01/05 07:09:55;;;;;;;;;0.25;0.00;;;;;13.20;85.33;102252.06;4980284;28;45553;-87
2023/01/05 07:12:23;;;;;;;;;0.00;0.00;;;;;13.24;85.71;102258.13;4997254;28;46090;-90
2023/01/05 07:14:49;;;;;;;;;0.00;0.00;;;;;13.24;85.56;102258.13;4997125;28;45399;-89
2023/01/05 07:17:14;;;;;;;;;0.00;0.00;;;;;13.26;85.94;102257.22;4998753;28;45360;-89
2023/01/05 07:19:40;;;;;;;;;1.25;0.00;;;;;13.28;85.90;102255.44;4997524;28;45320;-89
2023/01/05 07:22:05;;;;;;;;;0.00;0.00;;;;;13.30;86.10;102263.28;4997672;28;46295;-89
2023/01/05 07:24:31;;;;;;;;;1.00;0.00;;;;;13.32;85.69;102248.44;4998051;28;45547;-90
2023/01/05 07:27:00;;;;;;;;;0.50;0.00;;;;;13.30;85.74;102245.84;4998722;28;45223;-90
2023/01/05 07:29:25;;;;;;;;;1.00;0.00;;;;;13.32;85.75;102254.53;4981383;28;45351;-89
2023/01/05 07:31:51;;;;;;;;;0.00;0.00;;;;;13.33;86.17;102256.28;4997440;28;46265;-89
2023/01/05 07:34:17;;;;;;;;;0.00;0.00;;;;;13.36;85.80;102258.81;4981097;28;45641;-89
2023/01/05 07:36:43;;;;;;;;;0.75;0.00;;;;;13.35;85.79;102254.50;4998849;28;45604;-89
2023/01/05 07:39:08;;;;;;;;;0.00;0.00;;;;;13.36;85.94;102253.59;4996666;28;45335;-90
2023/01/05 07:41:34;;;;;;;;;1.00;0.00;;;;;13.39;86.20;102257.03;4983514;28;48397;-89
2023/01/05 07:43:59;;;;;;;;;0.50;0.00;;;;;13.41;86.12;102255.25;5017910;28;45325;-89
2023/01/05 07:46:24;;;;;;;;;0.00;0.00;;;;;13.44;85.88;102263.06;5033121;28;47065;-91
2023/01/05 07:48:50;;;;;;;;;0.00;0.00;;;;;13.46;86.01;102256.91;5001585;28;45572;-88
2023/01/05 07:51:15;;;;;;;;;0.75;0.00;;;;;13.49;85.66;102254.25;4996518;28;47294;-90
2023/01/05 07:53:40;;;;;;;;;0.00;0.00;;;;;13.50;85.86;102261.22;4980135;28;45339;-89
2023/01/05 07:56:06;;;;;;;;;2.75;0.00;;;;;13.51;85.83;102257.69;4997938;28;45279;-91
2023/01/05 07:58:32;;;;;;;;;0.75;0.00;;;;;13.51;85.77;102254.22;4996756;28;45335;-89
2023/01/05 08:01:08;;;;;;;;;0.00;0.00;;;;;13.50;85.91;102257.72;4996660;28;46786;-88
2023/01/05 08:03:34;;;;;;;;;0.00;0.00;;;;;13.50;86.19;102261.22;5012084;28;45488;-88
2023/01/05 08:06:07;;;;;;;;;0.00;0.00;;;;;13.52;86.17;102256.84;4995864;28;45477;-86
2023/01/05 08:08:33;;;;;;;;;0.00;0.00;;;;;13.56;86.03;102265.50;4996935;28;45641;-86
2023/01/05 08:10:58;;;;;;;;;1.50;0.00;;;;;13.55;86.04;102267.22;4995917;28;46239;-86
2023/01/05 08:16:07;;;;;;;;;2.00;0.00;;;;;13.62;85.94;102265.38;4992030;28;45528;-85
2023/01/05 08:18:33;;;;;;;;;1.00;1.00;;;;;13.66;86.03;102268.81;4995685;28;45334;-84
2023/01/05 08:21:03;;;;;;;;;4.75;2.00;;;;;13.69;85.76;102266.16;4995950;28;59374;-84
2023/01/05 08:23:28;;;;;;;;;0.00;0.00;;;;;13.73;85.63;102265.19;4996129;28;45413;-86
2023/01/05 08:25:54;;;;;;;;;2.50;2.00;;;;;13.75;85.53;102271.25;4995599;28;45327;-86
2023/01/05 08:28:19;;;;;;;;;4.25;2.00;;;;;13.75;85.93;102273.88;4978149;28;45414;-85
2023/01/05 08:30:45;;;;;;;;;2.25;2.25;;;;;13.74;85.27;102273.03;4988712;28;57996;-85
2023/01/05 08:33:10;;;;;;;;;2.00;1.00;;;;;13.76;86.02;102267.72;4992442;28;45647;-85
2023/01/05 08:35:40;;;;;;;;;2.00;2.00;;;;;13.79;85.66;102272.06;4992938;28;59765;-85
2023/01/05 08:38:05;;;;;;;;;6.75;1.75;;;;;13.83;85.87;102276.34;4995084;28;45456;-85
2023/01/05 08:40:31;;;;;;;;;2.50;1.00;;;;;13.83;85.52;102271.13;4993735;28;46258;-86
2023/01/05 08:42:56;;;;;;;;;0.75;0.75;;;;;13.86;85.75;102278.94;4994752;28;45457;-86
2023/01/05 08:45:22;;;;;;;;;0.00;0.00;;;;;13.89;85.66;102273.63;4993323;28;60296;-86
2023/01/05 08:47:47;;;;;;;;;0.50;0.00;;;;;13.91;85.57;102269.22;4995188;28;45425;-85
2023/01/05 08:50:15;;;;;;;;;1.00;0.00;;;;;13.94;85.51;102269.16;4995126;28;45362;-86
2023/01/05 08:52:40;;;;;;;;;2.25;0.00;;;;;13.95;85.05;102270.91;4993390;28;45398;-86
2023/01/05 08:55:09;;;;;;;;;0.00;0.00;;;;;13.99;85.22;102269.94;4995093;28;45364;-86
2023/01/05 08:57:34;;;;;;;;;0.00;0.00;;;;;14.02;85.14;102272.53;4995172;28;45519;-86
2023/01/05 09:00:00;;;;;;;;;0.25;0.00;;;;;14.01;85.60;102273.41;4976848;28;51319;-86
2023/01/05 09:02:26;;;;;;;;;0.00;0.00;;;;;14.00;84.89;102266.41;4993478;28;53366;-86
2023/01/05 09:04:51;;;;;;;;;1.00;0.00;;;;;14.05;84.76;102272.44;4977595;28;45494;-85
2023/01/05 09:07:17;;;;;;;;;0.00;0.00;;;;;14.10;84.92;102272.38;4993992;28;45498;-86
2023/01/05 09:09:42;;;;;;;;;0.00;0.00;;;;;14.14;84.84;102276.66;4992375;28;46410;-86
2023/01/05 09:12:07;;;;;;;;;0.00;0.00;;;;;14.19;84.78;102279.16;5000066;28;45500;-86
2023/01/05 09:14:33;;;;;;;;;0.00;0.00;;;;;14.21;84.52;102282.63;4994707;28;45637;-85
2023/01/05 09:16:59;;;;;;;;;1.00;0.00;;;;;14.23;84.60;102279.09;4992786;28;45451;-86
2023/01/05 09:19:25;;;;;;;;;0.00;0.00;;;;;14.26;84.29;102268.56;4992397;28;45736;-86
2023/01/05 09:21:51;;;;;;;;;0.00;0.00;;;;;14.33;83.78;102274.53;4991820;28;45539;-86
2023/01/05 09:24:16;;;;;;;;;2.25;0.00;;;;;14.39;83.88;102281.41;4990768;28;45448;-86
2023/01/05 09:26:42;;;;;;;;;0.00;0.00;;;;;14.44;83.39;102283.03;4980089;28;45807;-86
2023/01/05 09:29:09;;;;;;;;;0.00;0.00;;;;;14.46;83.65;102283.00;4991448;28;46959;-86
2023/01/05 09:31:34;;;;;;;;;0.00;0.00;;;;;14.45;83.25;102283.88;4993187;28;45778;-86
2023/01/05 09:33:59;;;;;;;;;0.00;0.00;;;;;14.47;83.44;102282.13;4989727;28;45471;-86
2023/01/05 09:36:25;;;;;;;;;0.50;0.00;;;;;14.49;83.22;102281.19;4988001;28;58856;-87
2023/01/05 09:38:52;;;;;;;;;0.00;0.00;;;;;14.50;83.19;102279.41;4993232;28;46638;-86
2023/01/05 09:41:24;;;;;;;;;0.00;0.00;;;;;14.51;83.05;102286.41;4968068;28;45714;-86
2023/01/05 09:43:55;;;;;;;;;0.00;0.00;;;;;14.51;83.32;102284.63;4999030;28;45297;-86
2023/01/05 09:46:23;;;;;;;;;2.75;0.00;;;;;14.53;82.99;102293.31;4993213;28;45539;-86
2023/01/05 09:48:53;;;;;;;;;0.00;0.00;;;;;14.55;83.15;102295.91;4992617;28;45442;-86
2023/01/05 09:51:18;;;;;;;;;0.00;0.00;;;;;14.59;83.14;102289.72;4993276;28;45674;-86
2023/01/05 09:53:44;;;;;;;;;0.00;0.00;;;;;14.62;82.99;102291.44;4976054;28;45437;-85
2023/01/05 09:56:20;;;;;;;;;0.00;0.00;;;;;14.64;82.69;102295.75;4990719;28;45752;-85
2023/01/05 09:58:46;;;;;;;;;2.00;2.00;;;;;14.70;83.02;102292.13;4990748;28;47757;-86
2023/01/05 10:01:15;;;;;;;;;0.00;0.00;;;;;14.74;82.25;102291.16;4974166;28;68926;-85
2023/01/05 10:04:17;;;;;;;;;2.00;1.00;;;;;14.76;82.83;102280.66;4992323;28;45636;-84
2023/01/05 10:06:49;;;;;;;;;0.00;0.00;;;;;14.79;82.51;102291.94;5004024;28;45587;-86
2023/01/05 10:09:19;;;;;;;;;0.00;0.00;;;;;14.80;82.59;102295.41;5008382;28;47407;-86
2023/01/05 10:15:11;;;;;;;;;0.00;0.00;;;;;14.76;82.34;102293.75;4992458;28;45400;-86
2023/01/05 10:17:38;;;;;;;;;0.00;0.00;;;;;14.75;82.44;102303.41;5008368;28;45594;-86
2023/01/05 10:20:15;;;;;;;;;3.00;0.50;;;;;14.71;82.58;102297.34;4991429;28;46460;-87
2023/01/05 10:23:12;;;;;;;;;0.00;0.00;;;;;14.69;82.35;102293.91;5000115;28;45606;-86
2023/01/05 10:25:50;;;;;;;;;0.00;0.00;;;;;14.68;82.64;102307.03;4991670;28;45537;-85
2023/01/05 10:28:24;;;;;;;;;2.00;0.75;;;;;14.69;82.95;102295.63;4990904;28;45475;-85
2023/01/05 10:30:59;;;;;;;;;0.00;0.00;;;;;14.71;82.83;102299.97;4987479;28;46206;-85
2023/01/05 10:33:57;;;;;;;;;0.00;0.00;;;;;14.75;82.51;102298.16;4965632;28;45646;-87
2023/01/05 10:36:30;;;;;;;;;0.25;0.00;;;;;14.88;82.53;102296.97;4975701;28;45607;-85
2023/01/05 10:39:51;;;;;;;;;0.50;0.00;;;;;15.02;82.59;102290.56;4993276;28;45575;-86
2023/01/05 10:42:28;;;;;;;;;0.25;0.00;;;;;15.16;82.16;102285.88;5018072;28;45543;-86
2023/01/05 10:44:55;;;;;;;;;2.75;0.75;;;;;15.25;82.00;102284.78;4994038;28;45827;-86
2023/01/05 10:47:24;;;;;;;;;0.75;0.75;;;;;15.29;81.28;102283.81;4997601;28;45481;-86
2023/01/05 10:49:49;;;;;;;;;0.00;0.00;;;;;15.33;81.23;102280.22;5020189;28;46599;-86
2023/01/05 10:52:18;;;;;;;;;0.00;0.00;;;;;15.33;81.33;102279.34;5012536;28;50832;-86
2023/01/05 10:54:47;;;;;;;;;1.25;0.75;;;;;15.32;80.88;102273.22;5012951;28;45935;-86
2023/01/05 10:57:33;;;;;;;;;1.00;0.25;;;;;15.41;81.09;102266.91;4997367;28;45540;-86
2023/01/05 11:00:00;;;;;;;;;0.75;0.00;;;;;15.47;81.05;102266.72;5013173;28;45500;-85
2023/01/05 11:02:29;;;;;;;;;1.25;0.00;;;;;15.47;80.77;102259.75;5012917;28;46687;-86
2023/01/05 11:05:15;;;;;;;;;0.00;0.00;;;;;15.47;80.87;102264.13;4996910;28;45488;-87
2023/01/05 11:07:49;;;;;;;;;1.00;0.00;;;;;15.41;81.50;102257.25;4997252;28;45756;-87
2023/01/05 11:10:29;;;;;;;;;2.00;1.00;;;;;15.34;81.67;102254.84;4997064;28;45590;-86
2023/01/05 11:13:26;;;;;;;;;0.25;0.00;;;;;15.21;82.75;102249.03;5013325;28;47188;-85
2023/01/05 11:16:21;;;;;;;;;0.00;0.00;;;;;15.09;82.98;102252.81;4990347;28;45659;-86
2023/01/05 11:18:56;;;;;;;;;1.00;1.00;;;;;15.02;83.18;102251.22;4978093;28;45397;-87
2023/01/05 11:21:27;;;;;;;;;2.00;0.75;;;;;14.99;83.49;102233.81;4995630;28;45482;-86
2023/01/05 11:23:59;;;;;;;;;2.00;0.00;;;;;14.99;83.45;102239.06;4996469;28;46072;-86
2023/01/05 11:26:32;;;;;;;;;1.00;0.00;;;;;14.97;83.69;102245.22;4987510;28;45691;-86
2023/01/05 11:29:07;;;;;;;;;0.00;0.00;;;;;14.96;83.84;102238.28;4991148;28;45769;-88
2023/01/05 11:31:41;;;;;;;;;0.00;0.00;;;;;14.95;84.03;102237.41;4980221;28;45342;-87
2023/01/05 11:34:25;;;;;;;;;2.00;0.00;;;;;14.94;83.67;102242.69;4975806;28;46754;-87
2023/01/05 11:36:56;;;;;;;;;1.50;0.00;;;;;14.95;83.78;102232.16;4981680;28;45547;-88
2023/01/05 11:39:44;;;;;;;;;0.00;0.00;;;;;14.98;83.60;102229.47;4992835;28;45493;-88
2023/01/05 11:42:17;;;;;;;;;1.00;1.00;;;;;14.97;83.60;102230.38;4991354;28;45456;-87
2023/01/05 11:44:46;;;;;;;;;0.25;0.25;;;;;14.97;83.65;102229.47;4976420;28;48117;-88
2023/01/05 11:47:25;;;;;;;;;3.00;1.00;;;;;14.98;83.56;102229.47;4994581;28;45340;-88
2023/01/05 11:49:59;;;;;;;;;1.00;1.00;;;;;15.02;83.43;102228.47;4995280;28;45402;-87
2023/01/05 11:52:37;;;;;;;;;0.00;0.00;;;;;15.02;83.27;102228.47;4994909;28;45365;-87
2023/01/05 11:55:29;;;;;;;;;1.00;1.00;;;;;14.93;83.20;102226.06;4990446;28;47116;-89
2023/01/05 11:58:22;;;;;;;;;2.00;1.00;;;;;14.90;83.69;102216.53;4990321;28;45551;-88
2023/01/05 12:01:15;;;;;;;;;0.50;0.50;;;;;14.87;83.12;102216.59;4990260;28;45832;-88
2023/01/05 12:04:07;;;;;;;;;2.25;0.50;;;;;14.86;83.36;102208.78;4994831;28;45445;-87
2023/01/05 12:06:41;;;;;;;;;0.00;0.00;;;;;14.85;83.26;102214.91;4995775;28;46498;-88